Time;durP1;ratioP1;P1;durP2;ratioP2;P2;SDS_P1;SDS_P2;PMS_P1;PMS_P2;Temp;Humidity;BMP_temperature;BMP_pressure;BME280_temperature;BME280_humidity;BME280_pressure;Samples;Min_cycle;Max_cycle;Signal;HPM_P1;HPM_P2
2023/06/11 00:01:23;;;;;;;3.25;2.00;;;;;;;17.67;100.00;99445.63;6399940;27;20134;-72
2023/06/11 00:04:25;;;;;;;2.00;1.80;;;;;;;17.70;100.00;99450.59;6400168;27;20050;-72
2023/06/11 00:07:27;;;;;;;2.78;2.33;;;;;;;17.68;100.00;99452.56;6400292;27;20054;-72
2023/06/11 00:10:28;;;;;;;3.00;2.15;;;;;;;17.61;100.00;99455.00;6399285;27;20405;-72
2023/06/11 00:13:29;;;;;;;2.65;1.73;;;;;;;17.69;100.00;99460.31;6399143;27;20039;-72
2023/06/11 00:16:36;;;;;;;5.30;2.20;;;;;;;17.60;100.00;99469.16;6400012;27;20447;-72
2023/06/11 00:19:40;;;;;;;2.38;1.88;;;;;;;17.55;100.00;99462.69;6400071;27;20050;-72
2023/06/11 00:22:42;;;;;;;2.53;2.05;;;;;;;17.52;100.00;99461.16;6380892;27;20045;-72
2023/06/11 00:25:42;;;;;;;5.63;2.03;;;;;;;17.64;100.00;99473.13;6381609;27;20053;-72
2023/06/11 00:28:43;;;;;;;2.45;1.77;;;;;;;17.51;100.00;99472.72;6399673;27;20051;-72
2023/06/11 00:31:44;;;;;;;3.35;2.40;;;;;;;17.63;100.00;99475.94;6399162;27;20075;-72
2023/06/11 00:34:45;;;;;;;3.42;2.08;;;;;;;17.47;100.00;99474.00;6399548;27;20051;-71
2023/06/11 00:37:49;;;;;;;4.13;2.17;;;;;;;17.50;100.00;99468.41;6399360;27;20112;-72
2023/06/11 00:40:52;;;;;;;2.65;2.17;;;;;;;17.37;100.00;99470.59;6399517;27;20103;-72
2023/06/11 00:43:54;;;;;;;3.22;2.03;;;;;;;17.35;100.00;99470.75;6380177;27;20069;-72
2023/06/11 00:46:59;;;;;;;3.53;2.00;;;;;;;17.30;100.00;99468.56;6380649;27;20391;-72
2023/06/11 00:50:03;;;;;;;8.27;2.45;;;;;;;17.30;100.00;99473.84;6380635;27;20737;-71
2023/06/11 00:53:05;;;;;;;3.78;2.03;;;;;;;17.35;100.00;99475.22;6380365;27;20399;-72
2023/06/11 00:56:06;;;;;;;2.60;2.20;;;;;;;17.28;100.00;99469.72;6399498;27;20085;-71
2023/06/11 00:59:08;;;;;;;2.57;2.13;;;;;;;17.15;100.00;99469.25;6400001;27;20043;-72
2023/06/11 01:02:17;;;;;;;;;;;;;;;17.15;100.00;99477.97;6381186;27;20047;-71
2023/06/11 01:05:21;;;;;;;2.67;1.88;;;;;;;17.06;100.00;99471.81;6381066;27;19919;-72
2023/06/11 01:08:23;;;;;;;2.45;1.98;;;;;;;17.09;100.00;99478.56;6399688;27;20102;-71
2023/06/11 01:11:24;;;;;;;;;;;;;;;17.18;100.00;99480.31;6381972;27;20058;-72
2023/06/11 01:14:25;;;;;;;3.53;2.13;;;;;;;17.02;100.00;99475.72;6398604;27;19963;-72
2023/06/11 01:17:35;;;;;;;7.25;2.40;;;;;;;16.91;100.00;99483.84;6398996;27;20074;-71
2023/06/11 01:20:45;;;;;;;2.72;2.42;;;;;;;17.02;100.00;99483.63;6380442;27;20050;-71
2023/06/11 01:24:09;;;;;;;9.27;2.45;;;;;;;17.01;100.00;99473.25;6379566;27;20465;-71
2023/06/11 01:27:26;;;;;;;5.45;2.20;;;;;;;17.07;100.00;99476.09;6399339;27;20057;-71
2023/06/11 01:30:35;;;;;;;2.60;2.13;;;;;;;17.07;100.00;99478.75;6380809;27;20047;-72
2023/06/11 01:33:36;;;;;;;2.95;2.33;;;;;;;17.01;100.00;99487.25;6398769;27;20090;-72
2023/06/11 01:36:39;;;;;;;2.83;2.08;;;;;;;16.90;100.00;99492.72;6380971;27;20054;-71
2023/06/11 01:39:45;;;;;;;4.80;2.40;;;;;;;17.00;100.00;99482.94;6398527;27;20428;-71
2023/06/11 01:42:45;;;;;;;2.90;2.10;;;;;;;17.13;100.00;99490.47;6380329;27;20137;-71
2023/06/11 01:45:46;;;;;;;2.45;2.10;;;;;;;17.07;100.00;99489.28;6380285;27;20504;-72
2023/06/11 01:48:47;;;;;;;3.67;2.33;;;;;;;17.20;100.00;99485.47;6380186;27;20442;-72
2023/06/11 01:51:50;;;;;;;2.67;2.00;;;;;;;17.24;100.00;99492.09;6380393;27;20153;-71
2023/06/11 01:54:53;;;;;;;5.90;2.08;;;;;;;17.23;100.00;99493.06;6379763;27;20090;-72
2023/06/11 01:57:54;;;;;;;3.97;2.30;;;;;;;17.36;100.00;99490.03;6398320;27;20050;-72
2023/06/11 02:00:58;;;;;;;4.05;2.25;;;;;;;17.22;100.00;99489.59;6379948;27;20406;-72
2023/06/11 02:03:59;;;;;;;3.03;2.17;;;;;;;17.16;100.00;99492.00;6379684;27;20470;-72
2023/06/11 02:07:00;;;;;;;3.30;2.25;;;;;;;17.17;100.00;99494.47;6398109;27;20141;-71
2023/06/11 02:10:00;;;;;;;3.53;2.00;;;;;;;17.21;100.00;99485.28;6398373;27;20075;-72
2023/06/11 02:13:01;;;;;;;2.53;2.25;;;;;;;17.21;100.00;99497.66;6379955;27;20515;-72
2023/06/11 02:16:02;;;;;;;13.23;2.47;;;;;;;17.10;100.00;99496.06;6398008;27;20425;-73
2023/06/11 02:19:03;;;;;;;3.70;2.28;;;;;;;17.18;100.00;99496.16;6398140;27;20091;-71
2023/06/11 02:22:04;;;;;;;2.28;2.05;;;;;;;17.15;100.00;99496.44;6398034;27;20057;-71
2023/06/11 02:25:05;;;;;;;3.75;2.53;;;;;;;17.20;100.00;99504.72;6397715;27;20489;-71
2023/06/11 02:28:06;;;;;;;3.03;2.40;;;;;;;17.15;100.00;99500.88;6397649;27;20481;-71
2023/06/11 02:31:07;;;;;;;2.85;2.05;;;;;;;17.36;100.00;99505.84;6379558;27;20111;-72
2023/06/11 02:34:08;;;;;;;2.33;1.88;;;;;;;17.25;100.00;99509.53;6397513;27;20050;-72
2023/06/11 02:37:08;;;;;;;3.05;2.30;;;;;;;17.30;100.00;99516.03;6379618;27;20054;-71
2023/06/11 02:40:10;;;;;;;4.28;2.33;;;;;;;17.34;100.00;99506.03;6379404;27;20474;-71
2023/06/11 02:43:11;;;;;;;3.40;2.65;;;;;;;17.31;100.00;99504.50;6396907;27;20047;-71
2023/06/11 02:46:14;;;;;;;4.53;2.45;;;;;;;17.25;100.00;99509.53;6396582;27;20530;-72
2023/06/11 02:49:17;;;;;;;2.60;2.10;;;;;;;17.31;100.00;99504.50;6378171;27;20088;-71
2023/06/11 02:52:18;;;;;;;2.33;2.05;;;;;;;17.31;100.00;99501.84;6396326;27;20046;-72
2023/06/11 02:55:19;;;;;;;3.15;2.45;;;;;;;17.26;100.00;99501.50;6378018;27;20103;-72
2023/06/11 02:58:20;;;;;;;3.60;2.42;;;;;;;17.24;100.00;99500.81;6378936;27;20043;-71
2023/06/11 03:01:21;;;;;;;4.27;2.87;;;;;;;17.24;100.00;99494.72;6379229;27;20513;-72
2023/06/11 03:04:21;;;;;;;4.18;2.40;;;;;;;17.26;100.00;99496.22;6397416;27;20058;-72
2023/06/11 03:07:24;;;;;;;4.45;2.38;;;;;;;17.28;100.00;99510.09;6378936;27;20046;-72
2023/06/11 03:10:27;;;;;;;3.15;2.38;;;;;;;17.33;100.00;99499.09;6399632;27;20051;-72
2023/06/11 03:13:28;;;;;;;3.47;2.22;;;;;;;17.26;100.00;99498.03;6383864;27;20485;-72
2023/06/11 03:16:29;;;;;;;3.20;2.75;;;;;;;17.27;100.00;99500.50;6402691;27;20054;-72
2023/06/11 03:19:30;;;;;;;3.35;2.50;;;;;;;17.39;100.00;99508.22;6402561;27;20057;-72
2023/06/11 03:22:30;;;;;;;2.88;2.20;;;;;;;17.29;100.00;99503.00;6402390;27;20129;-71
2023/06/11 03:25:31;;;;;;;3.35;2.45;;;;;;;17.35;100.00;99510.31;6401726;27;20050;-72
2023/06/11 03:28:32;;;;;;;3.65;2.40;;;;;;;17.35;100.00;99510.31;6402089;27;20485;-72
2023/06/11 03:31:33;;;;;;;4.30;2.60;;;;;;;17.25;100.00;99510.38;6384054;27;20085;-72
2023/06/11 03:34:33;;;;;;;3.20;2.35;;;;;;;17.33;100.00;99515.72;6383314;27;20046;-72
2023/06/11 03:37:34;;;;;;;3.78;2.60;;;;;;;17.36;100.00;99508.50;6383441;27;20187;-72
2023/06/11 03:40:35;;;;;;;4.00;2.85;;;;;;;17.21;100.00;99516.09;6383369;27;20103;-72
2023/06/11 03:43:38;;;;;;;3.60;2.58;;;;;;;17.30;100.00;99520.50;6383427;27;20061;-72
2023/06/11 03:46:39;;;;;;;3.22;2.60;;;;;;;17.39;100.00;99511.66;6401412;27;20046;-72
2023/06/11 06:12:40;;;;;;;3.95;3.22;;;;;;;19.26;100.00;99568.47;6390547;27;20391;-71
2023/06/11 06:15:41;;;;;;;8.53;3.37;;;;;;;19.36;100.00;99560.41;6420275;27;20058;-72
2023/06/11 06:18:44;;;;;;;3.70;2.90;;;;;;;19.61;100.00;99566.53;6407985;27;20386;-72
2023/06/11 06:21:44;;;;;;;5.47;3.13;;;;;;;19.44;100.00;99567.53;6383583;27;20058;-72
2023/06/11 06:24:45;;;;;;;4.40;3.13;;;;;;;19.58;100.00;99572.19;6388683;27;20051;-71
2023/06/11 06:27:48;;;;;;;4.75;2.65;;;;;;;19.60;100.00;99567.56;6392811;27;20051;-71
2023/06/11 06:30:49;;;;;;;3.00;2.70;;;;;;;19.87;100.00;99577.03;6394288;27;20051;-72
2023/06/11 06:33:53;;;;;;;4.45;2.83;;;;;;;19.93;100.00;99580.81;6394652;27;20047;-72
2023/06/11 06:36:54;;;;;;;4.70;2.60;;;;;;;20.01;100.00;99585.28;6393637;27;20138;-72
2023/06/11 06:39:55;;;;;;;2.90;2.57;;;;;;;20.18;100.00;99579.00;6393322;27;20042;-72
2023/06/11 06:42:56;;;;;;;3.83;2.97;;;;;;;20.33;97.80;99579.97;6393508;27;20386;-72
2023/06/11 06:45:56;;;;;;;4.60;2.87;;;;;;;20.25;98.23;99576.50;6394339;27;20108;-72
2023/06/11 06:48:57;;;;;;;5.63;2.60;;;;;;;20.42;97.79;99587.91;6390396;27;20055;-72
2023/06/11 06:51:58;;;;;;;3.57;3.13;;;;;;;20.30;98.72;99582.09;6384262;27;20865;-72
2023/06/11 06:54:59;;;;;;;3.97;3.20;;;;;;;20.64;99.43;99592.50;6372387;27;20047;-72
2023/06/11 06:58:00;;;;;;;3.17;2.63;;;;;;;20.81;96.02;99592.47;6367469;28;20052;-72
2023/06/11 07:01:00;;;;;;;4.30;3.03;;;;;;;20.89;95.96;99590.59;6374555;27;20461;-72
2023/06/11 07:17:20;;;;;;;4.00;3.08;;;;;;;21.62;91.88;99588.59;6343508;27;20388;-71
2023/06/11 07:20:21;;;;;;;3.33;2.70;;;;;;;21.62;91.91;99585.97;6329546;28;20053;-70
2023/06/11 07:23:22;;;;;;;5.10;3.00;;;;;;;21.43;89.45;99583.75;6329044;28;20480;-71
2023/06/11 07:26:23;;;;;;;5.30;2.87;;;;;;;21.70;91.76;99585.06;6323846;28;20059;-70
2023/06/11 07:29:25;;;;;;;3.70;2.90;;;;;;;21.73;89.12;99588.19;6324421;28;20837;-71
2023/06/11 07:32:26;;;;;;;4.28;2.80;;;;;;;21.96;88.33;99594.50;6321411;28;20052;-70
2023/06/11 07:35:27;;;;;;;5.60;2.97;;;;;;;21.70;86.85;99585.06;6323827;28;20547;-70
2023/06/11 07:38:29;;;;;;;3.33;2.60;;;;;;;21.75;89.02;99587.19;6340116;28;20059;-70
2023/06/11 07:41:32;;;;;;;;;;;;;;;21.76;86.33;99596.81;6342619;28;20471;-71
2023/06/11 07:44:33;;;;;;;3.95;2.80;;;;;;;21.71;85.26;99600.00;6343197;28;20033;-71
2023/06/11 07:47:36;;;;;;;4.37;2.70;;;;;;;21.88;87.75;99595.38;6343583;28;20499;-71
2023/06/11 07:50:37;;;;;;;4.63;2.97;;;;;;;21.81;86.19;99602.41;6341544;28;20047;-71
2023/06/11 07:53:38;;;;;;;4.00;2.83;;;;;;;22.36;86.24;99600.47;6342827;28;20498;-71
2023/06/11 07:56:39;;;;;;;5.40;2.87;;;;;;;22.25;86.16;99599.09;6341834;28;20041;-71
2023/06/11 07:59:42;;;;;;;4.17;2.60;;;;;;;22.35;82.94;99602.31;6343419;28;20051;-72
2023/06/11 08:02:45;;;;;;;3.97;2.97;;;;;;;22.37;84.00;99604.78;6342940;28;20055;-71
2023/06/11 08:05:46;;;;;;;6.88;2.80;;;;;;;22.38;83.83;99601.94;6342945;28;20075;-71
2023/06/11 08:08:47;;;;;;;3.30;2.60;;;;;;;22.52;86.67;99606.44;6338654;28;20054;-71
2023/06/11 08:11:50;;;;;;;4.53;2.60;;;;;;;22.67;84.44;99595.00;6321965;28;20096;-71
2023/06/11 08:14:52;;;;;;;4.22;2.90;;;;;;;22.78;85.65;99604.38;6318515;28;20586;-71
2023/06/11 08:17:53;;;;;;;3.80;2.70;;;;;;;22.65;82.82;99605.00;6306360;28;20122;-71
2023/06/11 08:20:53;;;;;;;3.17;2.63;;;;;;;22.38;82.56;99607.25;6307041;28;20055;-71
2023/06/11 08:23:54;;;;;;;3.83;2.63;;;;;;;22.77;81.81;99611.50;6298823;28;20135;-70
2023/06/11 08:26:55;;;;;;;2.93;2.40;;;;;;;22.83;78.54;99605.44;6302879;28;20044;-72
2023/06/11 08:29:56;;;;;;;3.87;2.53;;;;;;;23.29;79.03;99615.91;6320220;28;20058;-71
2023/06/11 08:32:56;;;;;;;3.20;2.60;;;;;;;23.32;83.44;99614.69;6321777;28;20045;-71
2023/06/11 08:35:57;;;;;;;2.87;2.57;;;;;;;23.74;83.82;99613.09;6303229;28;20385;-71
2023/06/11 08:38:58;;;;;;;3.00;2.60;;;;;;;23.50;78.13;99619.63;6298322;28;20114;-70
2023/06/11 08:41:59;;;;;;;3.47;2.40;;;;;;;23.39;78.40;99612.09;6308927;28;20130;-71
2023/06/11 08:45:00;;;;;;;4.30;2.50;;;;;;;23.50;77.19;99615.09;6318971;28;20070;-71
2023/06/11 08:48:05;;;;;;;3.47;2.63;;;;;;;23.74;77.88;99618.41;6322091;28;20059;-70
2023/06/11 08:51:10;;;;;;;2.90;2.42;;;;;;;24.00;76.37;99607.22;6322023;28;20048;-71
2023/06/11 08:54:11;;;;;;;4.55;2.53;;;;;;;23.83;75.98;99613.84;6323767;28;20503;-70
2023/06/11 08:57:12;;;;;;;3.13;2.30;;;;;;;23.86;73.22;99608.94;6307895;28;20067;-70
2023/06/11 09:00:14;;;;;;;4.03;2.72;;;;;;;24.34;72.37;99608.31;6306474;28;20063;-71
2023/06/11 09:03:15;;;;;;;2.67;2.38;;;;;;;24.78;70.86;99615.19;6306896;28;20561;-71
2023/06/11 09:06:17;;;;;;;2.88;2.60;;;;;;;24.81;71.59;99616.63;6306369;28;20044;-71
2023/06/11 09:09:18;;;;;;;3.17;2.05;;;;;;;24.48;71.56;99615.41;6312096;28;20148;-70
2023/06/11 09:12:19;;;;;;;2.95;2.25;;;;;;;24.50;74.23;99615.22;6302705;28;20522;-71
2023/06/11 09:15:24;;;;;;;2.67;2.17;;;;;;;24.58;71.50;99619.59;6304814;28;20052;-71
2023/06/11 09:18:26;;;;;;;3.33;2.33;;;;;;;23.89;75.17;99613.91;6298881;28;20040;-71
2023/06/11 09:21:27;;;;;;;3.35;2.33;;;;;;;24.09;74.45;99610.56;6314233;28;20052;-71
2023/06/11 09:24:28;;;;;;;4.90;2.73;;;;;;;24.12;73.14;99623.53;6315211;28;20090;-71
2023/06/11 09:27:28;;;;;;;3.60;2.47;;;;;;;24.12;72.22;99624.34;6298243;28;20048;-71
2023/06/11 09:30:29;;;;;;;8.00;2.57;;;;;;;23.99;71.67;99628.72;6328598;28;20055;-71
2023/06/11 09:33:31;;;;;;;3.23;2.10;;;;;;;24.19;74.42;99620.91;6312214;28;20059;-71
2023/06/11 09:36:35;;;;;;;2.55;2.05;;;;;;;24.06;73.90;99624.28;6303802;28;20044;-70
2023/06/11 09:39:36;;;;;;;4.57;2.40;;;;;;;24.42;71.69;99628.66;6310907;28;20056;-71
2023/06/11 09:42:38;;;;;;;3.55;2.22;;;;;;;24.57;69.20;99628.63;6321092;28;20087;-70
2023/06/11 09:45:39;;;;;;;4.65;2.20;;;;;;;24.53;72.34;99631.66;6316557;28;20554;-71
2023/06/11 09:48:41;;;;;;;3.40;2.20;;;;;;;23.98;72.04;99621.75;6321843;28;20063;-71
2023/06/11 09:51:43;;;;;;;2.40;2.13;;;;;;;24.14;71.76;99621.50;6320825;28;20147;-70
2023/06/11 09:54:46;;;;;;;2.30;2.05;;;;;;;24.00;73.58;99619.72;6320847;28;20056;-70
2023/06/11 09:57:48;;;;;;;2.58;2.25;;;;;;;23.65;74.29;99630.22;6321669;28;20043;-70
2023/06/11 10:00:50;;;;;;;3.72;1.95;;;;;;;23.36;75.74;99621.28;6320444;28;20487;-70
2023/06/11 10:03:53;;;;;;;2.65;2.03;;;;;;;23.29;78.36;99626.53;6321492;28;20101;-70
2023/06/11 10:06:56;;;;;;;3.53;2.20;;;;;;;23.37;77.87;99628.28;6305643;28;20048;-71
2023/06/11 10:09:58;;;;;;;2.90;2.58;;;;;;;23.36;76.24;99628.47;6297972;28;20117;-71
2023/06/11 10:12:59;;;;;;;3.28;2.20;;;;;;;23.04;77.53;99634.03;6318716;28;20044;-71
2023/06/11 10:16:08;;;;;;;4.57;2.63;;;;;;;23.44;77.27;99626.50;6308808;28;20127;-71
2023/06/11 10:19:10;;;;;;;3.47;2.35;;;;;;;23.78;76.21;99626.88;6307726;28;20078;-70
2023/06/11 10:22:11;;;;;;;3.00;2.60;;;;;;;24.05;75.03;99628.81;6310715;28;20648;-71
2023/06/11 10:25:12;;;;;;;2.80;2.23;;;;;;;24.62;71.19;99624.31;6313440;28;20044;-71
2023/06/11 10:28:13;;;;;;;2.67;2.13;;;;;;;24.63;69.58;99617.16;6297442;28;20128;-71
2023/06/11 10:31:25;;;;;;;5.63;2.73;;;;;;;24.88;72.16;99630.84;6316196;28;20058;-71
2023/06/11 10:34:25;;;;;;;;;;;;;;;24.60;69.22;99623.69;6317893;28;20091;-71
2023/06/11 10:37:41;;;;;;;2.47;2.20;;;;;;;25.61;67.42;99628.47;6302849;28;20348;-71
2023/06/11 10:40:47;;;;;;;2.30;2.10;;;;;;;26.11;62.99;99618.31;6315659;28;20056;-71
2023/06/11 10:43:48;;;;;;;3.28;1.85;;;;;;;26.00;63.04;99615.41;6315853;28;20100;-71
2023/06/11 10:46:55;;;;;;;4.13;2.37;;;;;;;26.22;64.34;99621.41;6320264;28;20048;-71
2023/06/11 10:50:10;;;;;;;3.50;2.13;;;;;;;26.08;62.04;99620.56;6320892;28;20078;-71
2023/06/11 10:53:17;;;;;;;5.65;2.10;;;;;;;26.10;64.75;99619.31;6321262;28;20048;-71
2023/06/11 10:56:20;;;;;;;3.17;2.20;;;;;;;25.20;67.36;99613.31;6318983;28;20065;-71
2023/06/11 10:59:24;;;;;;;3.33;2.05;;;;;;;24.57;71.48;99621.44;6300166;28;20056;-71
2023/06/11 11:02:25;;;;;;;2.38;1.90;;;;;;;25.06;67.00;99617.81;6298156;28;20053;-71
2023/06/11 11:05:26;;;;;;;1.88;1.77;;;;;;;25.13;66.29;99629.31;6312838;28;20561;-71
2023/06/11 11:08:28;;;;;;;2.77;2.03;;;;;;;25.16;67.00;99620.09;6318566;28;20127;-71
2023/06/11 11:11:29;;;;;;;2.80;1.92;;;;;;;25.49;66.95;99619.41;6308010;28;20391;-71
2023/06/11 11:14:34;;;;;;;2.67;2.30;;;;;;;25.50;66.57;99610.38;6320039;28;20080;-71
2023/06/11 11:17:35;;;;;;;3.38;2.42;;;;;;;25.84;62.82;99619.28;6320277;28;20432;-71
2023/06/11 11:20:36;;;;;;;2.87;2.30;;;;;;;26.64;61.71;99604.06;6306067;28;20079;-71
2023/06/11 11:23:39;;;;;;;4.00;2.27;;;;;;;27.15;61.89;99602.47;6313411;28;20315;-71
2023/06/11 11:26:41;;;;;;;2.90;2.30;;;;;;;26.82;59.25;99599.94;6295251;28;20040;-71
2023/06/11 11:29:45;;;;;;;2.03;1.85;;;;;;;27.25;57.75;99599.38;6308196;28;20114;-71
2023/06/11 11:32:46;;;;;;;2.47;2.03;;;;;;;27.21;58.66;99590.91;6302026;28;20055;-71
2023/06/11 11:35:53;;;;;;;2.80;1.92;;;;;;;27.48;56.23;99588.94;6299932;28;20044;-71
2023/06/11 11:38:54;;;;;;;4.30;2.10;;;;;;;27.59;56.43;99594.63;6304614;28;20063;-70
2023/06/11 11:41:56;;;;;;;2.50;2.05;;;;;;;27.38;56.77;99593.13;6300107;28;20391;-71
2023/06/11 11:44:56;;;;;;;2.17;1.90;;;;;;;26.76;58.48;99593.56;6308506;28;20507;-71
2023/06/11 11:47:57;;;;;;;2.50;2.27;;;;;;;27.21;57.07;99584.75;6304022;28;20064;-71
2023/06/11 11:51:08;;;;;;;2.80;1.77;;;;;;;26.84;59.16;99592.50;6328106;28;20050;-71
2023/06/11 11:54:13;;;;;;;2.05;1.70;;;;;;;26.81;57.14;99588.41;6326216;28;20070;-71
2023/06/11 11:57:21;;;;;;;2.55;1.70;;;;;;;26.23;56.75;99589.13;6324999;28;20133;-71
2023/06/11 12:00:25;;;;;;;2.08;1.80;;;;;;;26.93;58.58;99594.75;6325991;28;20062;-71
2023/06/11 12:03:26;;;;;;;4.53;1.85;;;;;;;26.77;56.50;99592.53;6319450;28;20503;-71
2023/06/11 12:06:30;;;;;;;2.10;1.90;;;;;;;26.46;60.98;99595.84;6310165;28;20098;-72
2023/06/11 12:09:30;;;;;;;4.45;1.90;;;;;;;26.58;62.59;99586.19;6313652;28;20050;-71
2023/06/11 12:12:31;;;;;;;2.85;1.80;;;;;;;26.38;62.31;99594.22;6303972;28;20043;-70
2023/06/11 12:15:35;;;;;;;3.30;2.03;;;;;;;25.90;59.94;99589.94;6327743;28;20421;-70
2023/06/11 12:18:36;;;;;;;2.17;1.98;;;;;;;25.68;63.12;99593.78;6310239;28;20296;-71
2023/06/11 12:21:39;;;;;;;2.28;1.77;;;;;;;26.07;64.41;99593.03;6318448;28;20056;-70
2023/06/11 12:24:39;;;;;;;2.65;2.17;;;;;;;26.20;61.68;99591.38;6315015;28;20049;-71
2023/06/11 12:27:41;;;;;;;3.60;1.80;;;;;;;26.25;63.17;99594.22;6316266;28;20104;-71
2023/06/11 12:30:42;;;;;;;1.60;1.50;;;;;;;26.11;62.65;99601.47;6306868;28;20759;-71
2023/06/11 12:33:43;;;;;;;3.97;1.73;;;;;;;26.46;63.42;99591.34;6316404;28;20060;-70
2023/06/11 12:36:44;;;;;;;2.10;1.63;;;;;;;26.28;63.06;99600.00;6318186;28;20134;-71
2023/06/11 12:39:46;;;;;;;1.60;1.40;;;;;;;26.28;61.67;99601.84;6324525;28;20147;-71
2023/06/11 12:42:48;;;;;;;2.35;1.63;;;;;;;26.80;61.24;99604.66;6323841;28;20051;-71
2023/06/11 12:45:49;;;;;;;2.72;1.80;;;;;;;27.21;61.78;99604.28;6324565;28;20073;-70
2023/06/11 12:48:49;;;;;;;1.80;1.40;;;;;;;27.01;59.02;99608.91;6317568;28;20048;-71
2023/06/11 12:51:55;;;;;;;1.48;1.10;;;;;;;26.20;58.62;99602.88;6301151;28;20048;-71
2023/06/11 12:54:56;;;;;;;4.43;1.50;;;;;;;26.33;58.72;99612.75;6300481;28;20059;-70
2023/06/11 12:57:57;;;;;;;1.40;1.20;;;;;;;26.22;57.90;99606.16;6315667;28;20044;-71
2023/06/11 13:00:57;;;;;;;1.83;1.30;;;;;;;26.23;57.23;99607.00;6303512;28;20285;-71
2023/06/11 13:03:58;;;;;;;1.23;0.97;;;;;;;26.26;59.01;99610.06;6298894;28;20094;-71
2023/06/11 13:06:59;;;;;;;1.83;1.48;;;;;;;26.42;58.23;99605.31;6298920;28;20058;-71
2023/06/11 13:10:00;;;;;;;1.25;1.13;;;;;;;25.93;58.18;99605.56;6300207;28;20045;-71
2023/06/11 13:13:01;;;;;;;3.03;0.97;;;;;;;26.59;57.82;99600.41;6301892;28;20052;-71
2023/06/11 13:16:02;;;;;;;1.00;1.00;;;;;;;26.57;55.83;99597.09;6300051;28;20715;-71
2023/06/11 13:19:03;;;;;;;3.08;1.27;;;;;;;25.90;57.13;99597.97;6300109;28;20046;-70
2023/06/11 13:22:05;;;;;;;1.20;1.10;;;;;;;25.96;58.11;99601.63;6299622;28;20139;-71
2023/06/11 13:25:06;;;;;;;0.80;0.80;;;;;;;26.06;59.81;99606.59;6302137;28;20049;-71
2023/06/11 13:28:07;;;;;;;;;;;;;;;26.84;57.68;99595.19;6320630;28;20044;-71
2023/06/11 13:31:07;;;;;;;3.17;1.00;;;;;;;26.21;58.92;99593.84;6318447;28;19946;-71
2023/06/11 13:34:08;;;;;;;0.80;0.70;;;;;;;25.82;56.49;99602.63;6297592;28;20646;-71
2023/06/11 13:37:09;;;;;;;0.70;0.60;;;;;;;25.65;55.63;99600.34;6298530;28;20056;-71
2023/06/11 13:40:09;;;;;;;1.47;0.97;;;;;;;25.22;56.69;99599.81;6313507;28;20503;-72
2023/06/11 13:43:10;;;;;;;1.63;0.70;;;;;;;25.76;58.50;99595.41;6304160;28;20055;-71
2023/06/11 13:46:13;;;;;;;3.80;1.08;;;;;;;25.93;56.97;99596.72;6310583;28;20055;-71
2023/06/11 13:49:14;;;;;;;0.98;0.77;;;;;;;26.14;54.95;99596.50;6303966;28;20056;-71
2023/06/11 13:52:15;;;;;;;0.93;0.87;;;;;;;25.64;53.54;99606.72;6312495;28;20533;-71
2023/06/11 13:55:15;;;;;;;0.60;0.57;;;;;;;25.30;54.66;99602.31;6311760;28;20296;-71
2023/06/11 13:58:16;;;;;;;1.47;0.83;;;;;;;25.38;54.52;99598.63;6300436;28;20048;-71
2023/06/11 14:01:17;;;;;;;0.70;0.68;;;;;;;25.59;54.15;99603.00;6301357;28;20052;-71
2023/06/11 14:04:18;;;;;;;1.10;1.00;;;;;;;25.33;54.25;99599.25;6317267;28;20078;-71
2023/06/11 14:07:19;;;;;;;0.73;0.70;;;;;;;25.41;55.43;99606.25;6297050;28;20125;-71
2023/06/11 14:10:25;;;;;;;1.38;0.77;;;;;;;25.16;56.00;99603.25;6314463;28;20052;-71
2023/06/11 14:13:26;;;;;;;1.63;0.90;;;;;;;25.32;56.40;99608.28;6295681;28;20048;-71
2023/06/11 14:16:29;;;;;;;3.03;0.60;;;;;;;25.49;56.68;99608.72;6322691;28;20483;-71
2023/06/11 14:19:32;;;;;;;0.70;0.50;;;;;;;25.41;57.27;99624.94;6316401;28;20040;-71
2023/06/11 14:22:33;;;;;;;0.75;0.70;;;;;;;25.39;57.27;99602.94;6311153;28;20062;-71
2023/06/11 14:25:34;;;;;;;0.87;0.50;;;;;;;25.19;57.70;99613.53;6300786;28;20484;-72
2023/06/11 14:28:34;;;;;;;0.63;0.63;;;;;;;25.25;55.39;99612.78;6298227;28;20048;-71
2023/06/11 14:31:35;;;;;;;0.50;0.50;;;;;;;25.09;55.39;99613.91;6302814;28;20052;-71
2023/06/11 14:34:36;;;;;;;0.53;0.53;;;;;;;25.02;56.39;99621.88;6310890;28;20458;-71
2023/06/11 14:37:37;;;;;;;0.83;0.60;;;;;;;24.86;58.35;99622.22;6308786;28;20052;-71
2023/06/11 14:40:37;;;;;;;0.50;0.50;;;;;;;24.82;58.20;99631.63;6324987;28;20056;-71
2023/06/11 14:43:38;;;;;;;0.60;0.60;;;;;;;24.57;59.53;99621.44;6303931;28;20045;-71
2023/06/11 14:46:41;;;;;;;0.50;0.50;;;;;;;24.72;60.50;99621.31;6295453;28;20531;-71
2023/06/11 14:49:42;;;;;;;0.85;0.60;;;;;;;24.85;58.42;99626.75;6299398;28;20044;-71
2023/06/11 14:52:42;;;;;;;5.20;0.60;;;;;;;24.62;58.31;99636.84;6299608;28;20048;-71
2023/06/11 14:55:43;;;;;;;2.60;0.57;;;;;;;24.97;59.18;99632.31;6299750;28;20397;-71
2023/06/11 14:58:46;;;;;;;0.55;0.40;;;;;;;25.32;58.17;99630.44;6302713;28;20094;-71
2023/06/11 15:01:47;;;;;;;3.45;0.80;;;;;;;25.16;56.14;99633.44;6297270;28;20084;-71
2023/06/11 15:04:48;;;;;;;0.40;0.40;;;;;;;25.09;57.00;99622.72;6328564;28;20076;-71
2023/06/11 15:07:49;;;;;;;0.67;0.60;;;;;;;25.00;57.54;99628.44;6299985;28;20059;-71
2023/06/11 15:10:52;;;;;;;1.13;0.33;;;;;;;24.43;56.98;99619.66;6302974;28;20067;-71
2023/06/11 15:13:53;;;;;;;1.05;0.40;;;;;;;24.15;57.57;99615.13;6324893;28;20047;-71
2023/06/11 15:16:56;;;;;;;0.30;0.23;;;;;;;24.03;59.15;99625.50;6309010;28;20113;-71
2023/06/11 15:19:59;;;;;;;0.30;0.30;;;;;;;23.97;58.17;99614.75;6305287;28;20048;-71
2023/06/11 15:23:02;;;;;;;0.35;0.30;;;;;;;23.79;57.89;99623.22;6317237;28;20056;-71
2023/06/11 15:26:03;;;;;;;0.40;0.30;;;;;;;23.72;58.71;99620.44;6321602;28;20150;-71
2023/06/11 15:29:07;;;;;;;0.33;0.33;;;;;;;23.72;58.74;99631.09;6324717;28;20047;-71
2023/06/11 15:32:08;;;;;;;0.52;0.43;;;;;;;23.57;58.80;99625.81;6324496;28;20090;-71
2023/06/11 15:35:09;;;;;;;0.20;0.20;;;;;;;23.50;58.25;99630.25;6321183;28;20458;-71
2023/06/11 15:38:09;;;;;;;0.35;0.35;;;;;;;23.64;57.84;99634.72;6301592;28;20048;-70
2023/06/11 15:41:10;;;;;;;0.30;0.30;;;;;;;23.94;56.84;99634.63;6304634;28;20059;-71
2023/06/11 15:44:11;;;;;;;0.20;0.20;;;;;;;23.62;57.53;99638.59;6309076;28;20049;-70
2023/06/11 15:47:12;;;;;;;0.40;0.40;;;;;;;23.56;58.16;99644.66;6306431;28;20048;-71
2023/06/11 15:50:12;;;;;;;0.33;0.30;;;;;;;23.51;58.43;99650.53;6324256;28;20052;-71
2023/06/11 15:53:13;;;;;;;0.20;0.20;;;;;;;23.18;59.76;99650.13;6316995;28;20048;-71
2023/06/11 15:56:14;;;;;;;3.73;0.50;;;;;;;23.33;59.90;99648.31;6306417;28;20044;-71
2023/06/11 15:59:15;;;;;;;0.37;0.37;;;;;;;23.38;59.24;99642.41;6317849;28;20055;-71
2023/06/11 16:02:16;;;;;;;0.37;0.37;;;;;;;23.41;59.27;99652.66;6303105;28;20669;-71
2023/06/11 16:05:16;;;;;;;0.30;0.30;;;;;;;23.20;59.54;99648.94;6300913;28;20101;-70
2023/06/11 16:08:17;;;;;;;0.47;0.47;;;;;;;23.10;60.64;99643.06;6311012;28;20059;-70
2023/06/11 16:11:18;;;;;;;0.30;0.30;;;;;;;23.25;60.38;99656.38;6315616;28;20500;-72
2023/06/11 16:14:19;;;;;;;0.73;0.40;;;;;;;23.01;60.77;99662.78;6298029;28;20052;-70
2023/06/11 16:17:19;;;;;;;0.53;0.40;;;;;;;23.16;61.55;99660.97;6296955;28;20049;-72
2023/06/11 16:20:20;;;;;;;0.33;0.33;;;;;;;23.00;61.31;99666.44;6298351;28;20052;-71
2023/06/11 16:23:22;;;;;;;0.30;0.30;;;;;;;23.10;61.65;99672.34;6313851;28;20139;-71
2023/06/11 16:26:23;;;;;;;0.20;0.20;;;;;;;22.89;61.76;99665.88;6298714;28;20143;-73
2023/06/11 16:29:24;;;;;;;0.20;0.20;;;;;;;23.31;60.26;99667.09;6298021;28;20458;-71
2023/06/11 16:32:24;;;;;;;0.30;0.30;;;;;;;23.46;59.63;99671.59;6314980;28;20487;-71
2023/06/11 16:46:21;;;;;;;0.70;0.30;;;;;;;22.37;59.81;99689.84;6318837;27;20370;-71
2023/06/11 16:49:22;;;;;;;0.30;0.30;;;;;;;23.05;57.30;99685.38;6318963;28;20063;-72
2023/06/11 16:52:29;;;;;;;0.37;0.20;;;;;;;23.82;55.33;99700.06;6317538;28;20052;-71
2023/06/11 16:55:29;;;;;;;0.47;0.25;;;;;;;22.61;58.49;99688.78;6318683;28;20067;-71
2023/06/11 16:58:32;;;;;;;3.40;0.30;;;;;;;22.27;60.36;99692.75;6317443;28;20391;-72
2023/06/11 17:01:33;;;;;;;0.10;0.10;;;;;;;22.00;61.06;99699.38;6317288;28;20052;-72